createdAt,value
2022-08-07T00:01:43.965Z,2.30
2022-08-07T00:04:05.201Z,2.27
2022-08-07T00:06:33.844Z,2.10
2022-08-07T00:09:16.966Z,2.50
2022-08-07T00:11:55.362Z,2.37
2022-08-07T00:14:25.356Z,3.40
2022-08-07T00:16:52.496Z,2.90
2022-08-07T00:19:21.540Z,2.87
2022-08-07T00:21:56.304Z,3.00
2022-08-07T00:24:24.887Z,2.33
2022-08-07T00:27:06.748Z,2.30
2022-08-07T00:29:37.054Z,2.10
2022-08-07T00:32:05.967Z,2.07
2022-08-07T00:34:35.560Z,2.40
2022-08-07T00:37:05.116Z,2.10
2022-08-07T00:39:32.573Z,2.30
2022-08-07T00:42:01.712Z,2.00
2022-08-07T00:44:33.167Z,2.23
2022-08-07T00:47:00.612Z,4.00
2022-08-07T00:50:21.215Z,2.90
2022-08-07T00:52:17.576Z,2.70
2022-08-07T00:54:47.152Z,2.20
2022-08-07T00:57:22.008Z,2.10
2022-08-07T00:59:49.717Z,2.23
2022-08-07T01:02:29.319Z,2.33
2022-08-07T01:04:58.693Z,2.20
2022-08-07T01:07:27.656Z,2.27
2022-08-07T01:10:06.803Z,1.93
2022-08-07T01:12:39.242Z,2.27
2022-08-07T01:15:11.953Z,1.87
2022-08-07T01:17:45.212Z,2.00
2022-08-07T01:20:16.772Z,2.37
2022-08-07T01:22:58.423Z,1.80
2022-08-07T01:25:53.831Z,2.07
2022-08-07T01:28:19.512Z,2.20
2022-08-07T01:30:47.190Z,2.10
2022-08-07T01:33:18.226Z,1.87
2022-08-07T01:35:53.442Z,2.10
2022-08-07T01:38:25.606Z,2.17
2022-08-07T01:40:54.748Z,2.40
2022-08-07T01:43:23.061Z,2.10
2022-08-07T01:45:54.509Z,2.47
2022-08-07T01:48:29.757Z,2.20
2022-08-07T01:50:59.647Z,2.67
2022-08-07T01:54:09.999Z,2.30
2022-08-07T01:56:37.870Z,2.50
2022-08-07T01:59:09.222Z,2.40
2022-08-07T02:02:01.671Z,2.73
2022-08-07T02:04:55.821Z,2.33
2022-08-07T02:07:24.868Z,2.33
2022-08-07T02:10:04.303Z,2.20
2022-08-07T02:12:34.037Z,2.30
2022-08-07T02:15:06.035Z,2.30
2022-08-07T02:17:35.238Z,2.37
2022-08-07T02:20:09.279Z,2.53
2022-08-07T02:22:46.313Z,2.30
2022-08-07T02:25:17.320Z,2.30
2022-08-07T02:27:51.244Z,2.73
2022-08-07T02:30:19.955Z,2.50
2022-08-07T02:33:00.808Z,2.37
2022-08-07T02:36:28.223Z,2.37
2022-08-07T02:38:28.083Z,2.33
2022-08-07T02:40:59.473Z,2.10
2022-08-07T02:43:29.291Z,2.03
2022-08-07T02:46:01.709Z,2.23
2022-08-07T02:48:29.528Z,1.90
2022-08-07T02:50:59.491Z,2.53
2022-08-07T02:53:29.270Z,2.30
2022-08-07T02:56:03.389Z,2.20
2022-08-07T02:58:33.402Z,2.30
2022-08-07T03:01:01.249Z,2.00
2022-08-07T03:03:49.250Z,2.17
2022-08-07T03:06:26.232Z,2.20
2022-08-07T03:09:02.350Z,2.50
2022-08-07T03:11:32.772Z,2.00
2022-08-07T03:14:06.088Z,2.10
2022-08-07T03:16:34.799Z,2.50
2022-08-07T03:19:02.085Z,2.10
2022-08-07T03:21:32.813Z,2.37
2022-08-07T03:24:19.406Z,2.20
2022-08-07T03:26:58.986Z,2.30
2022-08-07T03:29:37.571Z,2.33
2022-08-07T03:32:13.065Z,2.07
2022-08-07T03:34:47.362Z,2.10
2022-08-07T03:37:37.444Z,2.33
2022-08-07T03:40:15.571Z,2.20
2022-08-07T03:42:43.980Z,2.00
2022-08-07T03:45:11.957Z,2.07
2022-08-07T03:47:48.240Z,2.10
2022-08-07T03:50:22.999Z,2.23
2022-08-07T03:52:52.553Z,2.30
2022-08-07T03:55:19.829Z,2.60
2022-08-07T03:58:34.194Z,2.10
2022-08-07T04:00:36.825Z,2.20
2022-08-07T04:03:05.265Z,2.27
2022-08-07T04:05:40.603Z,2.10
2022-08-07T04:08:18.203Z,2.20
2022-08-07T04:10:54.242Z,2.30
2022-08-07T04:14:33.172Z,2.27
2022-08-07T04:16:31.028Z,2.20
2022-08-07T04:19:03.952Z,2.30
2022-08-07T04:21:39.851Z,2.13
2022-08-07T04:24:34.292Z,2.17
2022-08-07T04:27:06.074Z,2.20
2022-08-07T04:29:58.528Z,2.00
2022-08-07T04:32:34.969Z,2.03
2022-08-07T04:35:07.243Z,2.00
2022-08-07T04:38:01.198Z,2.33
2022-08-07T04:40:29.718Z,2.20
2022-08-07T04:43:01.888Z,2.03
2022-08-07T04:45:54.946Z,2.27
2022-08-07T04:48:26.386Z,2.17
2022-08-07T04:51:21.051Z,2.20
2022-08-07T04:54:06.028Z,2.30
2022-08-07T04:58:12.160Z,2.20
2022-08-07T05:00:09.921Z,2.37
2022-08-07T05:02:51.914Z,2.20
2022-08-07T05:05:53.536Z,2.20
2022-08-07T05:08:59.459Z,2.27
2022-08-07T05:11:57.376Z,2.03
2022-08-07T05:14:56.444Z,2.20
2022-08-07T05:17:12.013Z,2.67
2022-08-07T05:19:45.174Z,1.73
2022-08-07T05:22:26.733Z,2.37
2022-08-07T05:24:57.205Z,2.10
2022-08-07T05:28:02.101Z,2.17
2022-08-07T05:30:25.072Z,2.27
2022-08-07T05:33:02.473Z,2.30
2022-08-07T05:35:33.402Z,2.30
2022-08-07T05:38:09.843Z,2.27
2022-08-07T05:40:50.329Z,2.00
2022-08-07T05:43:19.228Z,2.20
2022-08-07T05:46:06.139Z,1.97
2022-08-07T05:48:33.990Z,2.17
2022-08-07T05:51:02.020Z,2.10
2022-08-07T05:54:13.598Z,2.13
2022-08-07T05:56:20.353Z,2.17
2022-08-07T05:58:57.771Z,2.10
2022-08-07T06:01:27.447Z,1.90
2022-08-07T06:04:04.258Z,1.80
2022-08-07T06:06:34.041Z,1.97
2022-08-07T06:09:04.711Z,1.70
2022-08-07T06:11:33.878Z,1.60
2022-08-07T06:14:12.148Z,1.65
2022-08-07T06:16:50.400Z,1.48
2022-08-07T06:19:52.097Z,1.50
2022-08-07T06:22:15.683Z,1.95
2022-08-07T06:24:56.990Z,3.63
2022-08-07T06:27:44.270Z,2.10
2022-08-07T06:30:32.412Z,1.73
2022-08-07T06:33:02.561Z,1.50
2022-08-07T06:35:45.449Z,2.78
2022-08-07T06:38:20.139Z,1.60
2022-08-07T06:40:53.185Z,1.52
2022-08-07T06:43:23.603Z,1.70
2022-08-07T06:45:51.618Z,1.65
2022-08-07T06:48:25.041Z,1.70
2022-08-07T06:50:54.734Z,1.95
2022-08-07T06:55:27.461Z,1.92
2022-08-07T06:56:15.004Z,1.40
2022-08-07T07:00:17.914Z,1.73
2022-08-07T07:01:42.061Z,1.50
2022-08-07T07:04:28.545Z,1.50
2022-08-07T07:07:02.331Z,1.65
2022-08-07T07:09:38.230Z,1.53
2022-08-07T07:12:10.788Z,1.60
2022-08-07T07:15:24.218Z,1.40
2022-08-07T07:18:12.129Z,1.43
2022-08-07T07:21:13.625Z,1.37
2022-08-07T07:24:06.342Z,1.60
2022-08-07T07:26:37.904Z,1.70
2022-08-07T07:29:38.609Z,1.50
2022-08-07T07:32:09.371Z,1.20
2022-08-07T07:34:40.735Z,1.50
2022-08-07T07:37:45.100Z,1.35
2022-08-07T07:40:02.795Z,1.30
2022-08-07T07:42:38.584Z,1.50
2022-08-07T07:45:06.805Z,1.20
2022-08-07T07:47:51.878Z,1.33
2022-08-07T07:50:34.218Z,1.10
2022-08-07T07:53:20.722Z,1.50
2022-08-07T07:55:54.732Z,1.40
2022-08-07T07:58:37.099Z,1.30
2022-08-07T08:02:03.206Z,1.20
2022-08-07T08:04:09.551Z,1.50
2022-08-07T08:06:39.486Z,1.40
2022-08-07T08:09:08.514Z,1.20
2022-08-07T08:11:59.319Z,1.10
2022-08-07T08:14:26.432Z,1.50
2022-08-07T08:16:56.087Z,1.35
2022-08-07T08:20:19.185Z,1.03
2022-08-07T08:22:56.080Z,1.10
2022-08-07T08:25:49.285Z,1.00
2022-08-07T08:28:24.096Z,1.27
2022-08-07T08:31:16.264Z,1.37
2022-08-07T08:33:49.895Z,1.33
2022-08-07T08:36:29.614Z,1.17
2022-08-07T08:38:59.879Z,1.10
2022-08-07T08:41:57.186Z,1.10
2022-08-07T08:44:31.753Z,1.00
2022-08-07T08:47:21.799Z,1.00
2022-08-07T08:50:35.285Z,1.10
2022-08-07T08:53:06.607Z,1.20
2022-08-07T08:55:55.606Z,1.30
2022-08-07T08:58:44.128Z,1.17
2022-08-07T09:01:40.141Z,0.87
2022-08-07T09:04:36.569Z,1.10
2022-08-07T09:07:04.027Z,1.20
2022-08-07T09:10:03.318Z,1.25
2022-08-07T09:12:53.704Z,1.20
2022-08-07T09:16:20.319Z,1.10
2022-08-07T09:18:41.409Z,1.20
2022-08-07T09:21:58.089Z,1.00
2022-08-07T09:24:31.729Z,1.10
2022-08-07T09:27:30.814Z,0.80
2022-08-07T09:30:08.772Z,1.05
2022-08-07T09:32:56.919Z,0.80
2022-08-07T09:36:03.111Z,0.90
2022-08-07T09:38:37.429Z,1.20
2022-08-07T09:42:02.985Z,1.10
2022-08-07T09:45:03.535Z,1.20
2022-08-07T09:48:01.625Z,1.02
2022-08-07T09:50:48.087Z,1.05
2022-08-07T09:53:22.377Z,0.80
2022-08-07T09:56:37.634Z,1.20
2022-08-07T09:59:35.821Z,1.13
2022-08-07T10:02:13.713Z,0.90
2022-08-07T10:05:58.113Z,1.10
2022-08-07T10:08:39.152Z,1.10
2022-08-07T10:12:01.484Z,2.00
2022-08-07T10:14:15.789Z,0.93
2022-08-07T10:17:04.190Z,1.00
2022-08-07T10:20:31.892Z,1.00
2022-08-07T10:23:07.637Z,1.02
2022-08-07T10:26:00.810Z,0.85
2022-08-07T10:28:40.214Z,0.90
2022-08-07T10:31:45.318Z,0.90
2022-08-07T10:34:37.470Z,1.00
2022-08-07T10:37:19.502Z,0.80
2022-08-07T10:40:02.564Z,0.90
2022-08-07T10:42:41.716Z,1.40
2022-08-07T10:45:14.781Z,1.10
2022-08-07T10:47:53.143Z,0.95
2022-08-07T10:50:50.003Z,0.90
2022-08-07T10:53:41.662Z,1.15
2022-08-07T10:56:19.702Z,1.00
2022-08-07T10:59:00.323Z,1.10
2022-08-07T11:01:52.069Z,1.55
2022-08-07T11:04:53.249Z,1.00
2022-08-07T11:07:56.937Z,1.05
2022-08-07T11:10:17.883Z,1.00
2022-08-07T11:13:06.150Z,1.10
2022-08-07T11:15:54.508Z,1.02
2022-08-07T11:18:50.857Z,1.15
2022-08-07T11:21:32.116Z,1.05
2022-08-07T11:24:06.435Z,1.00
2022-08-07T11:26:43.417Z,1.30
2022-08-07T11:29:41.750Z,0.90
2022-08-07T11:32:40.519Z,1.00
2022-08-07T11:35:11.025Z,0.98
2022-08-07T11:37:58.078Z,2.78
2022-08-07T11:40:49.529Z,3.00
2022-08-07T11:43:41.194Z,0.90
2022-08-07T11:46:13.064Z,0.90
2022-08-07T11:49:51.318Z,0.93
2022-08-07T11:51:48.697Z,1.05
2022-08-07T11:54:27.188Z,1.60
2022-08-07T11:56:56.311Z,1.10
2022-08-07T12:00:11.953Z,1.10
2022-08-07T12:02:52.409Z,1.40
2022-08-07T12:05:47.320Z,2.28
2022-08-07T12:08:35.164Z,1.20
2022-08-07T12:11:21.028Z,1.17
2022-08-07T12:14:04.187Z,1.08
2022-08-07T12:16:41.737Z,0.80
2022-08-07T12:19:21.380Z,1.00
2022-08-07T12:22:39.149Z,1.42
2022-08-07T12:25:17.965Z,1.10
2022-08-07T12:28:10.043Z,1.10
2022-08-07T12:30:40.407Z,1.00
2022-08-07T12:33:28.382Z,1.10
2022-08-07T12:36:02.386Z,0.98
2022-08-07T12:38:42.653Z,0.88
2022-08-07T12:41:11.636Z,1.10
2022-08-07T12:44:04.823Z,1.10
2022-08-07T12:46:48.773Z,1.10
2022-08-07T12:49:51.037Z,1.25
2022-08-07T12:52:33.885Z,1.27
2022-08-07T12:55:09.744Z,1.00
2022-08-07T12:58:00.669Z,0.93
2022-08-07T13:00:50.922Z,1.00
2022-08-07T13:03:27.116Z,0.98
2022-08-07T13:06:21.373Z,1.30
2022-08-07T13:08:56.905Z,1.00
2022-08-07T13:12:03.117Z,1.00
2022-08-07T13:14:37.273Z,1.17
2022-08-07T13:17:21.154Z,1.38
2022-08-07T13:20:09.218Z,1.10
2022-08-07T13:22:40.693Z,1.08
2022-08-07T13:25:09.437Z,1.00
2022-08-07T13:28:12.909Z,1.00
2022-08-07T13:30:48.932Z,1.00
2022-08-07T13:34:14.862Z,1.13
2022-08-07T13:36:31.610Z,0.98
2022-08-07T13:39:28.480Z,1.23
2022-08-07T13:42:01.738Z,1.15
2022-08-07T13:44:34.496Z,1.05
2022-08-07T13:47:09.229Z,1.10
2022-08-07T13:50:35.672Z,1.05
2022-08-07T13:52:32.353Z,1.02
2022-08-07T13:55:07.074Z,1.00
2022-08-07T13:57:38.607Z,1.15
2022-08-07T14:00:08.062Z,1.20
2022-08-07T14:02:50.842Z,1.20
2022-08-07T14:05:28.994Z,3.38
2022-08-07T14:08:06.960Z,1.40
2022-08-07T14:10:42.147Z,1.10
2022-08-07T14:13:16.531Z,1.60
2022-08-07T14:15:51.257Z,1.27
2022-08-07T14:18:29.558Z,1.10
2022-08-07T14:21:21.197Z,1.10
2022-08-07T14:24:02.331Z,1.17
2022-08-07T14:26:38.235Z,1.60
2022-08-07T14:30:07.596Z,1.50
2022-08-07T14:32:01.507Z,1.20
2022-08-07T14:34:30.854Z,1.27
2022-08-07T14:37:03.612Z,1.20
2022-08-07T14:42:27.523Z,1.55
2022-08-07T14:45:20.816Z,1.52
2022-08-07T14:47:48.366Z,1.70
2022-08-07T14:50:19.721Z,1.10
2022-08-07T14:52:47.967Z,0.80
2022-08-07T14:55:18.402Z,0.90
2022-08-07T14:57:54.583Z,1.30
2022-08-07T15:00:31.104Z,1.70
2022-08-07T15:03:00.005Z,1.05
2022-08-07T15:05:27.609Z,1.23
2022-08-07T15:07:58.533Z,1.15
2022-08-07T15:13:18.419Z,1.88
2022-08-07T15:15:52.651Z,1.90
2022-08-07T15:18:33.923Z,1.27
2022-08-07T15:21:07.877Z,1.20
2022-08-07T15:26:37.625Z,1.10
2022-08-07T15:30:09.920Z,1.30
2022-08-07T15:32:02.513Z,3.58
2022-08-07T15:40:34.147Z,1.90
2022-08-07T15:49:16.486Z,1.40
2022-08-07T15:54:34.161Z,1.20
2022-08-07T15:57:04.787Z,1.98
2022-08-07T15:59:39.941Z,1.88
2022-08-07T16:02:15.295Z,2.15
2022-08-07T16:04:44.109Z,1.50
2022-08-07T16:08:28.486Z,1.50
2022-08-07T16:10:14.633Z,1.20
2022-08-07T16:13:05.886Z,2.30
2022-08-07T16:16:06.533Z,2.88
2022-08-07T16:18:43.434Z,2.22
2022-08-07T16:22:02.462Z,1.73
2022-08-07T16:24:35.038Z,2.30
2022-08-07T16:27:18.685Z,1.70
2022-08-07T16:30:11.593Z,1.23
2022-08-07T16:32:54.976Z,2.20
2022-08-07T16:35:56.614Z,2.33
2022-08-07T16:38:21.650Z,2.85
2022-08-07T16:41:22.267Z,1.90
2022-08-07T16:44:04.343Z,1.10
2022-08-07T16:47:04.912Z,1.17
2022-08-07T16:50:27.098Z,2.28
2022-08-07T16:53:20.696Z,2.50
2022-08-07T16:55:50.620Z,2.53
2022-08-07T16:59:10.379Z,2.38
2022-08-07T17:01:41.314Z,1.25
2022-08-07T17:04:14.289Z,1.60
2022-08-07T17:07:09.539Z,2.58
2022-08-07T17:10:06.098Z,3.67
2022-08-07T17:12:39.787Z,3.10
2022-08-07T17:15:20.515Z,3.53
2022-08-07T17:17:47.954Z,3.60
2022-08-07T17:20:32.923Z,1.80
2022-08-07T17:23:33.177Z,1.63
2022-08-07T17:26:22.551Z,2.22
2022-08-07T17:29:18.353Z,3.83
2022-08-07T17:32:06.229Z,3.22
2022-08-07T17:35:33.156Z,4.95
2022-08-07T17:38:09.471Z,4.45
2022-08-07T17:40:30.251Z,4.55
2022-08-07T17:43:18.985Z,3.38
2022-08-07T17:45:58.128Z,3.47
2022-08-07T17:48:30.565Z,3.55
2022-08-07T17:51:13.217Z,2.45
2022-08-07T17:54:01.334Z,3.00
2022-08-07T17:56:33.451Z,1.98
2022-08-07T17:59:04.415Z,1.90
2022-08-07T18:01:48.582Z,2.28
2022-08-07T18:04:34.800Z,1.20
2022-08-07T18:07:22.711Z,1.20
2022-08-07T18:10:06.034Z,1.20
2022-08-07T18:12:51.823Z,1.20
2022-08-07T18:15:23.347Z,1.10
2022-08-07T18:18:45.213Z,1.30
2022-08-07T18:21:38.336Z,1.10
2022-08-07T18:24:28.386Z,1.52
2022-08-07T18:27:22.830Z,1.33
2022-08-07T18:30:06.990Z,1.23
2022-08-07T18:32:41.707Z,1.40
2022-08-07T18:35:15.809Z,2.08
2022-08-07T18:38:55.558Z,2.25
2022-08-07T18:40:53.571Z,1.50
2022-08-07T18:43:57.769Z,2.08
2022-08-07T18:46:59.897Z,1.75
2022-08-07T18:50:32.922Z,1.92
2022-08-07T18:52:56.493Z,2.08
2022-08-07T18:55:43.328Z,1.50
2022-08-07T18:58:26.119Z,2.10
2022-08-07T19:01:00.906Z,1.85
2022-08-07T19:03:52.084Z,2.05
2022-08-07T19:06:33.640Z,1.98
2022-08-07T19:09:56.938Z,2.03
2022-08-07T19:12:31.556Z,2.50
2022-08-07T19:16:03.623Z,2.75
2022-08-07T19:18:12.581Z,2.67
2022-08-07T19:21:10.125Z,4.95
2022-08-07T19:23:59.231Z,4.30
2022-08-07T19:26:47.938Z,3.30
2022-08-07T19:31:01.319Z,3.00
2022-08-07T19:32:18.789Z,3.47
2022-08-07T19:34:59.193Z,2.75
2022-08-07T19:37:47.277Z,4.50
2022-08-07T19:40:31.090Z,5.07
2022-08-07T19:43:01.323Z,4.57
2022-08-07T19:46:08.372Z,3.63
2022-08-07T19:48:24.547Z,3.67
2022-08-07T19:50:53.413Z,3.85
2022-08-07T19:54:32.021Z,4.00
2022-08-07T19:57:52.241Z,4.63
2022-08-07T19:58:59.422Z,5.13
2022-08-07T20:01:52.377Z,4.95
2022-08-07T20:04:38.000Z,3.65
2022-08-07T20:07:09.192Z,3.10
2022-08-07T20:10:33.780Z,3.15
2022-08-07T20:12:34.946Z,2.95
2022-08-07T20:15:04.306Z,2.85
2022-08-07T20:17:38.753Z,3.45
2022-08-07T20:20:07.930Z,4.10
2022-08-07T20:22:40.816Z,4.03
2022-08-07T20:25:19.407Z,4.20
2022-08-07T20:27:54.150Z,3.53
2022-08-07T20:30:30.254Z,4.63
2022-08-07T20:33:00.245Z,4.22
2022-08-07T20:35:36.474Z,4.82
2022-08-07T20:38:20.776Z,5.35
2022-08-07T20:40:52.945Z,5.40
2022-08-07T20:43:25.248Z,6.80
2022-08-07T20:46:25.833Z,7.05
2022-08-07T20:49:54.119Z,6.18
2022-08-07T20:51:36.030Z,5.80
2022-08-07T20:54:15.105Z,5.10
2022-08-07T20:56:46.159Z,4.10
2022-08-07T21:00:05.419Z,2.63
2022-08-07T21:02:06.156Z,3.13
2022-08-07T21:04:50.334Z,3.42
2022-08-07T21:07:19.449Z,4.22
2022-08-07T21:10:00.378Z,4.80
2022-08-07T21:12:31.475Z,4.35
2022-08-07T21:15:02.482Z,4.18
2022-08-07T21:18:02.950Z,3.92
2022-08-07T21:20:30.481Z,3.05
2022-08-07T21:23:08.031Z,2.50
2022-08-07T21:25:45.181Z,2.55
2022-08-07T21:28:48.654Z,1.90
2022-08-07T21:31:49.310Z,2.28
2022-08-07T21:34:13.898Z,2.80
2022-08-07T21:36:54.091Z,2.55
2022-08-07T21:39:47.655Z,2.57
2022-08-07T21:46:09.279Z,3.60
2022-08-07T21:48:08.131Z,4.72
2022-08-07T21:51:19.400Z,6.20
2022-08-07T21:53:52.745Z,4.43
2022-08-07T21:56:47.231Z,3.92
2022-08-07T22:00:02.982Z,3.10
2022-08-07T22:02:43.974Z,3.70
2022-08-07T22:05:44.304Z,3.85
2022-08-07T22:08:14.605Z,4.27
2022-08-07T22:10:47.027Z,4.15
2022-08-07T22:13:15.770Z,3.83
2022-08-07T22:16:45.743Z,4.30
2022-08-07T22:19:01.227Z,4.83
2022-08-07T22:22:04.999Z,4.47
2022-08-07T22:24:23.856Z,4.00
2022-08-07T22:27:04.869Z,3.95
2022-08-07T22:29:55.234Z,3.10
2022-08-07T22:32:44.207Z,3.53
2022-08-07T22:35:11.796Z,4.00
2022-08-07T22:38:03.373Z,3.63
2022-08-07T22:40:51.316Z,4.37
2022-08-07T22:43:31.615Z,4.80
2022-08-07T22:46:47.076Z,3.97
2022-08-07T22:49:18.831Z,4.53
2022-08-07T22:51:52.212Z,5.03
2022-08-07T22:54:25.246Z,5.23
2022-08-07T22:56:51.915Z,4.25
2022-08-07T22:59:41.486Z,5.10
2022-08-07T23:02:12.375Z,4.40
2022-08-07T23:04:57.072Z,4.70
2022-08-07T23:07:49.799Z,3.97
2022-08-07T23:10:36.363Z,5.13
2022-08-07T23:13:29.377Z,5.80
2022-08-07T23:16:46.769Z,5.47
2022-08-07T23:20:17.573Z,3.37
2022-08-07T23:23:02.718Z,2.40
2022-08-07T23:25:53.617Z,2.77
2022-08-07T23:29:42.749Z,3.00
2022-08-07T23:34:21.866Z,2.27
2022-08-07T23:35:21.214Z,2.20
2022-08-07T23:38:01.533Z,2.10
2022-08-07T23:40:35.122Z,2.27
2022-08-07T23:43:38.226Z,1.98
2022-08-07T23:46:10.663Z,2.03
2022-08-07T23:48:44.306Z,2.10
2022-08-07T23:53:01.973Z,2.50
2022-08-07T23:54:19.835Z,2.37
2022-08-07T23:57:14.417Z,2.07
